sensor_id;sensor_type;location;lat;lon;timestamp;pressure;altitude;pressure_sealevel;temperature
12126;BMP180;6126;57.908;16.490;2022-11-22T00:00:07;100441.88;;;0.80
12126;BMP180;6126;57.908;16.490;2022-11-22T00:02:34;100450.38;;;0.89
12126;BMP180;6126;57.908;16.490;2022-11-22T00:05:00;100440.00;;;0.95
12126;BMP180;6126;57.908;16.490;2022-11-22T00:07:26;100454.53;;;1.02
12126;BMP180;6126;57.908;16.490;2022-11-22T00:09:52;100449.31;;;1.08
12126;BMP180;6126;57.908;16.490;2022-11-22T00:12:18;100454.44;;;1.11
12126;BMP180;6126;57.908;16.490;2022-11-22T00:14:43;100446.69;;;1.14
12126;BMP180;6126;57.908;16.490;2022-11-22T00:17:09;100449.22;;;1.17
12126;BMP180;6126;57.908;16.490;2022-11-22T00:19:35;100455.22;;;1.19
12126;BMP180;6126;57.908;16.490;2022-11-22T00:22:05;100462.91;;;1.23
12126;BMP180;6126;57.908;16.490;2022-11-22T00:24:31;100452.56;;;1.27
12126;BMP180;6126;57.908;16.490;2022-11-22T00:26:57;100466.25;;;1.29
12126;BMP180;6126;57.908;16.490;2022-11-22T00:29:23;100461.94;;;1.31
12126;BMP180;6126;57.908;16.490;2022-11-22T00:31:49;100464.47;;;1.34
12126;BMP180;6126;57.908;16.490;2022-11-22T00:34:15;100457.59;;;1.38
12126;BMP180;6126;57.908;16.490;2022-11-22T00:36:40;100467.81;;;1.42
12126;BMP180;6126;57.908;16.490;2022-11-22T00:39:06;100458.38;;;1.43
12126;BMP180;6126;57.908;16.490;2022-11-22T00:41:32;100460.94;;;1.46
12126;BMP180;6126;57.908;16.490;2022-11-22T00:43:58;100479.78;;;1.49
12126;BMP180;6126;57.908;16.490;2022-11-22T00:46:24;100467.72;;;1.52
12126;BMP180;6126;57.908;16.490;2022-11-22T00:48:50;100466.81;;;1.55
12126;BMP180;6126;57.908;16.490;2022-11-22T00:51:16;100467.66;;;1.57
12126;BMP180;6126;57.908;16.490;2022-11-22T00:53:42;100470.25;;;1.58
12126;BMP180;6126;57.908;16.490;2022-11-22T00:56:08;100471.91;;;1.61
12126;BMP180;6126;57.908;16.490;2022-11-22T00:58:34;100479.63;;;1.61
12126;BMP180;6126;57.908;16.490;2022-11-22T01:01:00;100471.03;;;1.62
12126;BMP180;6126;57.908;16.490;2022-11-22T01:03:25;100480.50;;;1.61
12126;BMP180;6126;57.908;16.490;2022-11-22T01:05:51;100489.91;;;1.64
12126;BMP180;6126;57.908;16.490;2022-11-22T01:08:17;100487.34;;;1.64
12126;BMP180;6126;57.908;16.490;2022-11-22T01:10:43;100479.63;;;1.64
12126;BMP180;6126;57.908;16.490;2022-11-22T01:13:10;100491.63;;;1.63
12126;BMP180;6126;57.908;16.490;2022-11-22T01:15:36;100489.06;;;1.62
12126;BMP180;6126;57.908;16.490;2022-11-22T01:18:02;100503.63;;;1.63
12126;BMP180;6126;57.908;16.490;2022-11-22T01:20:29;100496.78;;;1.62
12126;BMP180;6126;57.908;16.490;2022-11-22T01:22:56;100497.69;;;1.59
12126;BMP180;6126;57.908;16.490;2022-11-22T01:25:22;100502.84;;;1.58
12126;BMP180;6126;57.908;16.490;2022-11-22T01:27:48;100509.72;;;1.57
12126;BMP180;6126;57.908;16.490;2022-11-22T01:30:16;100514.06;;;1.54
12126;BMP180;6126;57.908;16.490;2022-11-22T01:32:42;100515.78;;;1.52
12126;BMP180;6126;57.908;16.490;2022-11-22T01:35:09;100515.81;;;1.49
12126;BMP180;6126;57.908;16.490;2022-11-22T01:37:35;100529.56;;;1.48
12126;BMP180;6126;57.908;16.490;2022-11-22T01:40:01;100527.00;;;1.45
12126;BMP180;6126;57.908;16.490;2022-11-22T01:42:54;100544.22;;;1.40
12126;BMP180;6126;57.908;16.490;2022-11-22T01:50:35;100539.97;;;1.38
12126;BMP180;6126;57.908;16.490;2022-11-22T01:53:13;100547.69;;;1.36
12126;BMP180;6126;57.908;16.490;2022-11-22T01:55:41;100557.16;;;1.36
12126;BMP180;6126;57.908;16.490;2022-11-22T01:58:09;100556.31;;;1.34
12126;BMP180;6126;57.908;16.490;2022-11-22T02:00:37;100558.03;;;1.32
12126;BMP180;6126;57.908;16.490;2022-11-22T02:03:08;100555.50;;;1.30
12126;BMP180;6126;57.908;16.490;2022-11-22T02:05:35;100563.22;;;1.29
12126;BMP180;6126;57.908;16.490;2022-11-22T02:08:18;100572.66;;;1.28
12126;BMP180;6126;57.908;16.490;2022-11-22T02:10:51;100570.97;;;1.27
12126;BMP180;6126;57.908;16.490;2022-11-22T02:13:20;100563.25;;;1.27
12126;BMP180;6126;57.908;16.490;2022-11-22T02:15:48;100561.50;;;1.26
12126;BMP180;6126;57.908;16.490;2022-11-22T02:18:14;100567.53;;;1.25
12126;BMP180;6126;57.908;16.490;2022-11-22T02:20:41;100571.84;;;1.23
12126;BMP180;6126;57.908;16.490;2022-11-22T02:25:48;100571.88;;;1.19
12126;BMP180;6126;57.908;16.490;2022-11-22T02:28:13;100565.88;;;1.19
12126;BMP180;6126;57.908;16.490;2022-11-22T02:30:41;100568.47;;;1.17
12126;BMP180;6126;57.908;16.490;2022-11-22T02:33:07;100571.03;;;1.16
12126;BMP180;6126;57.908;16.490;2022-11-22T02:35:34;100571.03;;;1.14
12126;BMP180;6126;57.908;16.490;2022-11-22T02:38:06;100577.03;;;1.16
12126;BMP180;6126;57.908;16.490;2022-11-22T02:40:42;100583.03;;;1.17
12126;BMP180;6126;57.908;16.490;2022-11-22T02:43:18;100574.47;;;1.18
12126;BMP180;6126;57.908;16.490;2022-11-22T02:45:45;100586.47;;;1.19
12126;BMP180;6126;57.908;16.490;2022-11-22T02:48:14;100586.44;;;1.22
12126;BMP180;6126;57.908;16.490;2022-11-22T02:50:41;100583.00;;;1.23
12126;BMP180;6126;57.908;16.490;2022-11-22T02:53:09;100581.28;;;1.23
12126;BMP180;6126;57.908;16.490;2022-11-22T02:55:35;100583.84;;;1.22
12126;BMP180;6126;57.908;16.490;2022-11-22T02:58:03;100582.16;;;1.21
12126;BMP180;6126;57.908;16.490;2022-11-22T03:00:35;100577.03;;;1.18
12126;BMP180;6126;57.908;16.490;2022-11-22T03:03:01;100595.06;;;1.18
12126;BMP180;6126;57.908;16.490;2022-11-22T03:05:27;100595.91;;;1.17
12126;BMP180;6126;57.908;16.490;2022-11-22T03:07:53;100589.94;;;1.15
12126;BMP180;6126;57.908;16.490;2022-11-22T03:10:19;100579.66;;;1.15
12126;BMP180;6126;57.908;16.490;2022-11-22T03:12:45;100596.78;;;1.16
12126;BMP180;6126;57.908;16.490;2022-11-22T03:15:10;100595.91;;;1.17
12126;BMP180;6126;57.908;16.490;2022-11-22T03:17:36;100598.47;;;1.17
12126;BMP180;6126;57.908;16.490;2022-11-22T03:20:03;100606.19;;;1.17
12126;BMP180;6126;57.908;16.490;2022-11-22T03:22:29;100604.50;;;1.16
12126;BMP180;6126;57.908;16.490;2022-11-22T03:24:55;100603.66;;;1.14
12126;BMP180;6126;57.908;16.490;2022-11-22T03:27:21;100603.69;;;1.11
12126;BMP180;6126;57.908;16.490;2022-11-22T03:29:47;100621.69;;;1.11
12126;BMP180;6126;57.908;16.490;2022-11-22T03:32:13;100603.72;;;1.08
12126;BMP180;6126;57.908;16.490;2022-11-22T03:34:38;100610.56;;;1.07
12126;BMP180;6126;57.908;16.490;2022-11-22T03:37:04;100620.03;;;1.07
12126;BMP180;6126;57.908;16.490;2022-11-22T03:39:30;100620.03;;;1.07
12126;BMP180;6126;57.908;16.490;2022-11-22T03:41:56;100615.72;;;1.06
12126;BMP180;6126;57.908;16.490;2022-11-22T03:44:22;100615.72;;;1.06
12126;BMP180;6126;57.908;16.490;2022-11-22T03:46:48;100615.72;;;1.06
12126;BMP180;6126;57.908;16.490;2022-11-22T03:49:14;100615.72;;;1.06
12126;BMP180;6126;57.908;16.490;2022-11-22T03:51:40;100609.72;;;1.05
12126;BMP180;6126;57.908;16.490;2022-11-22T03:54:06;100621.75;;;1.05
12126;BMP180;6126;57.908;16.490;2022-11-22T03:56:31;100621.75;;;1.05
12126;BMP180;6126;57.908;16.490;2022-11-22T03:58:57;100626.03;;;1.04
12126;BMP180;6126;57.908;16.490;2022-11-22T04:01:23;100625.16;;;1.04
12126;BMP180;6126;57.908;16.490;2022-11-22T04:03:49;100617.44;;;1.04
12126;BMP180;6126;57.908;16.490;2022-11-22T04:06:16;100621.75;;;1.03
12126;BMP180;6126;57.908;16.490;2022-11-22T04:08:42;100620.91;;;1.03
12126;BMP180;6126;57.908;16.490;2022-11-22T04:11:08;100616.63;;;1.00
12126;BMP180;6126;57.908;16.490;2022-11-22T04:13:34;100628.63;;;1.00
12126;BMP180;6126;57.908;16.490;2022-11-22T04:16:19;100626.06;;;0.98
12126;BMP180;6126;57.908;16.490;2022-11-22T04:18:45;100624.38;;;0.97
12126;BMP180;6126;57.908;16.490;2022-11-22T04:21:10;100622.66;;;0.95
12126;BMP180;6126;57.908;16.490;2022-11-22T04:23:54;100635.53;;;0.93
12126;BMP180;6126;57.908;16.490;2022-11-22T04:26:38;100625.25;;;0.92
12126;BMP180;6126;57.908;16.490;2022-11-22T04:29:04;100625.25;;;0.91
12126;BMP180;6126;57.908;16.490;2022-11-22T04:31:30;100625.28;;;0.89
12126;BMP180;6126;57.908;16.490;2022-11-22T04:34:14;100620.97;;;0.88
12126;BMP180;6126;57.908;16.490;2022-11-22T04:36:40;100623.59;;;0.87
12126;BMP180;6126;57.908;16.490;2022-11-22T04:39:06;100623.59;;;0.85
12126;BMP180;6126;57.908;16.490;2022-11-22T04:41:32;100632.19;;;0.84
12126;BMP180;6126;57.908;16.490;2022-11-22T04:43:57;100639.91;;;0.81
12126;BMP180;6126;57.908;16.490;2022-11-22T04:46:42;100636.50;;;0.79
12126;BMP180;6126;57.908;16.490;2022-11-22T04:49:08;100634.78;;;0.78
12126;BMP180;6126;57.908;16.490;2022-11-22T04:51:33;100643.38;;;0.71
12126;BMP180;6126;57.908;16.490;2022-11-22T04:54:17;100644.28;;;0.66
12126;BMP180;6126;57.908;16.490;2022-11-22T04:56:43;100649.47;;;0.60
12126;BMP180;6126;57.908;16.490;2022-11-22T04:59:09;100646.91;;;0.54
12126;BMP180;6126;57.908;16.490;2022-11-22T05:01:35;100654.63;;;0.48
12126;BMP180;6126;57.908;16.490;2022-11-22T05:04:00;100647.81;;;0.41
12126;BMP180;6126;57.908;16.490;2022-11-22T05:06:26;100651.25;;;0.36
12126;BMP180;6126;57.908;16.490;2022-11-22T05:08:52;100653.00;;;0.30
12126;BMP180;6126;57.908;16.490;2022-11-22T05:11:18;100665.03;;;0.25
12126;BMP180;6126;57.908;16.490;2022-11-22T05:13:44;100659.06;;;0.18
12126;BMP180;6126;57.908;16.490;2022-11-22T05:16:13;100663.31;;;0.15
12126;BMP180;6126;57.908;16.490;2022-11-22T05:18:40;100650.47;;;0.10
12126;BMP180;6126;57.908;16.490;2022-11-22T05:21:12;100665.06;;;0.08
12126;BMP180;6126;57.908;16.490;2022-11-22T05:23:39;100653.94;;;0.03
12126;BMP180;6126;57.908;16.490;2022-11-22T05:26:31;100660.81;;;0.00
12126;BMP180;6126;57.908;16.490;2022-11-22T05:29:02;100662.53;;;-0.03
12126;BMP180;6126;57.908;16.490;2022-11-22T05:31:31;100663.41;;;-0.07
12126;BMP180;6126;57.908;16.490;2022-11-22T05:33:57;100669.38;;;-0.11
12126;BMP180;6126;57.908;16.490;2022-11-22T05:36:24;100678.78;;;-0.13
12126;BMP180;6126;57.908;16.490;2022-11-22T05:38:51;100682.22;;;-0.14
12126;BMP180;6126;57.908;16.490;2022-11-22T05:41:17;100694.22;;;-0.18
12126;BMP180;6126;57.908;16.490;2022-11-22T05:43:43;100693.38;;;-0.20
12126;BMP180;6126;57.908;16.490;2022-11-22T05:46:16;100702.78;;;-0.20
12126;BMP180;6126;57.908;16.490;2022-11-22T05:48:44;100704.50;;;-0.21
12126;BMP180;6126;57.908;16.490;2022-11-22T05:51:14;100705.34;;;-0.19
12126;BMP180;6126;57.908;16.490;2022-11-22T05:53:41;100719.91;;;-0.16
12126;BMP180;6126;57.908;16.490;2022-11-22T05:56:10;100725.03;;;-0.16
12126;BMP180;6126;57.908;16.490;2022-11-22T05:58:38;100725.91;;;-0.17
12126;BMP180;6126;57.908;16.490;2022-11-22T06:01:16;100742.16;;;-0.15
12126;BMP180;6126;57.908;16.490;2022-11-22T06:03:43;100733.59;;;-0.16
12126;BMP180;6126;57.908;16.490;2022-11-22T06:06:09;100739.56;;;-0.18
12126;BMP180;6126;57.908;16.490;2022-11-22T06:08:39;100743.88;;;-0.20
12126;BMP180;6126;57.908;16.490;2022-11-22T06:11:19;100737.03;;;-0.24
12126;BMP180;6126;57.908;16.490;2022-11-22T06:13:49;100740.47;;;-0.28
12126;BMP180;6126;57.908;16.490;2022-11-22T06:16:17;100739.59;;;-0.33
12126;BMP180;6126;57.908;16.490;2022-11-22T06:18:43;100737.88;;;-0.37
12126;BMP180;6126;57.908;16.490;2022-11-22T06:21:16;100737.88;;;-0.38
12126;BMP180;6126;57.908;16.490;2022-11-22T06:23:43;100741.31;;;-0.38
12126;BMP180;6126;57.908;16.490;2022-11-22T06:26:15;100750.72;;;-0.40
12126;BMP180;6126;57.908;16.490;2022-11-22T06:28:42;100744.72;;;-0.48
12126;BMP180;6126;57.908;16.490;2022-11-22T06:31:12;100746.41;;;-0.56
12126;BMP180;6126;57.908;16.490;2022-11-22T06:33:40;100759.25;;;-0.64
12126;BMP180;6126;57.908;16.490;2022-11-22T06:36:16;100764.34;;;-0.79
12126;BMP180;6126;57.908;16.490;2022-11-22T06:38:44;100772.00;;;-0.88
12126;BMP180;6126;57.908;16.490;2022-11-22T06:41:16;100772.00;;;-0.93
12126;BMP180;6126;57.908;16.490;2022-11-22T06:43:44;100775.38;;;-0.96
12126;BMP180;6126;57.908;16.490;2022-11-22T06:46:11;100767.69;;;-0.98
12126;BMP180;6126;57.908;16.490;2022-11-22T06:48:40;100761.72;;;-0.94
12126;BMP180;6126;57.908;16.490;2022-11-22T06:53:35;100772.00;;;-0.88
12126;BMP180;6126;57.908;16.490;2022-11-22T06:56:04;100772.88;;;-0.91
12126;BMP180;6126;57.908;16.490;2022-11-22T06:58:31;100782.25;;;-0.91
12126;BMP180;6126;57.908;16.490;2022-11-22T07:01:05;100767.72;;;-0.93
12126;BMP180;6126;57.908;16.490;2022-11-22T07:03:33;100786.50;;;-0.94
12126;BMP180;6126;57.908;16.490;2022-11-22T07:06:00;100777.13;;;-0.95
12126;BMP180;6126;57.908;16.490;2022-11-22T07:08:26;100774.56;;;-0.98
12126;BMP180;6126;57.908;16.490;2022-11-22T07:10:52;100787.34;;;-1.00
12126;BMP180;6126;57.908;16.490;2022-11-22T07:13:18;100783.91;;;-1.02
12126;BMP180;6126;57.908;16.490;2022-11-22T07:15:59;100780.47;;;-1.10
12126;BMP180;6126;57.908;16.490;2022-11-22T07:18:26;100792.41;;;-1.12
12126;BMP180;6126;57.908;16.490;2022-11-22T07:20:52;100790.72;;;-1.13
12126;BMP180;6126;57.908;16.490;2022-11-22T07:23:24;100794.13;;;-1.18
12126;BMP180;6126;57.908;16.490;2022-11-22T07:25:49;100793.25;;;-1.22
12126;BMP180;6126;57.908;16.490;2022-11-22T07:28:15;100805.19;;;-1.23
12126;BMP180;6126;57.908;16.490;2022-11-22T07:30:42;100812.88;;;-1.25
12126;BMP180;6126;57.908;16.490;2022-11-22T07:33:08;100806.88;;;-1.28
12126;BMP180;6126;57.908;16.490;2022-11-22T07:35:35;100817.13;;;-1.34
12126;BMP180;6126;57.908;16.490;2022-11-22T07:38:02;100829.09;;;-1.32
12126;BMP180;6126;57.908;16.490;2022-11-22T07:40:28;100815.44;;;-1.26
12126;BMP180;6126;57.908;16.490;2022-11-22T07:42:54;100829.94;;;-1.30
12126;BMP180;6126;57.908;16.490;2022-11-22T07:45:20;100820.50;;;-1.35
12126;BMP180;6126;57.908;16.490;2022-11-22T07:47:47;100828.19;;;-1.38
12126;BMP180;6126;57.908;16.490;2022-11-22T07:50:13;100826.50;;;-1.36
12126;BMP180;6126;57.908;16.490;2022-11-22T07:52:38;100832.47;;;-1.33
12126;BMP180;6126;57.908;16.490;2022-11-22T07:55:06;100837.63;;;-1.34
12126;BMP180;6126;57.908;16.490;2022-11-22T07:57:32;100831.59;;;-1.42
12126;BMP180;6126;57.908;16.490;2022-11-22T07:59:58;100840.06;;;-1.49
12126;BMP180;6126;57.908;16.490;2022-11-22T08:02:25;100834.06;;;-1.54
12126;BMP180;6126;57.908;16.490;2022-11-22T08:04:51;100828.06;;;-1.57
12126;BMP180;6126;57.908;16.490;2022-11-22T08:07:18;100829.78;;;-1.58
12126;BMP180;6126;57.908;16.490;2022-11-22T08:09:44;100829.78;;;-1.55
12126;BMP180;6126;57.908;16.490;2022-11-22T08:12:10;100834.09;;;-1.48
12126;BMP180;6126;57.908;16.490;2022-11-22T08:14:36;100833.31;;;-1.43
12126;BMP180;6126;57.908;16.490;2022-11-22T08:17:02;100829.03;;;-1.39
12126;BMP180;6126;57.908;16.490;2022-11-22T08:19:30;100836.72;;;-1.42
12126;BMP180;6126;57.908;16.490;2022-11-22T08:21:56;100827.28;;;-1.43
12126;BMP180;6126;57.908;16.490;2022-11-22T08:24:21;100822.16;;;-1.43
12126;BMP180;6126;57.908;16.490;2022-11-22T08:26:47;100829.91;;;-1.40
12126;BMP180;6126;57.908;16.490;2022-11-22T08:29:13;100832.44;;;-1.39
12126;BMP180;6126;57.908;16.490;2022-11-22T08:31:39;100823.94;;;-1.35
12126;BMP180;6126;57.908;16.490;2022-11-22T08:34:05;100835.09;;;-1.28
12126;BMP180;6126;57.908;16.490;2022-11-22T08:36:32;100835.09;;;-1.25
12126;BMP180;6126;57.908;16.490;2022-11-22T08:38:58;100837.66;;;-1.27
12126;BMP180;6126;57.908;16.490;2022-11-22T08:41:24;100849.63;;;-1.29
12126;BMP180;6126;57.908;16.490;2022-11-22T08:43:52;100847.91;;;-1.28
12126;BMP180;6126;57.908;16.490;2022-11-22T08:46:18;100841.91;;;-1.30
12126;BMP180;6126;57.908;16.490;2022-11-22T08:48:45;100847.00;;;-1.33
12126;BMP180;6126;57.908;16.490;2022-11-22T08:51:13;100862.38;;;-1.33
12126;BMP180;6126;57.908;16.490;2022-11-22T08:53:41;100865.81;;;-1.30
12126;BMP180;6126;57.908;16.490;2022-11-22T08:56:11;100868.41;;;-1.31
12126;BMP180;6126;57.908;16.490;2022-11-22T08:58:37;100863.25;;;-1.34
12126;BMP180;6126;57.908;16.490;2022-11-22T09:01:15;100870.94;;;-1.34
12126;BMP180;6126;57.908;16.490;2022-11-22T09:03:43;100865.81;;;-1.31
12126;BMP180;6126;57.908;16.490;2022-11-22T09:06:12;100865.00;;;-1.29
12126;BMP180;6126;57.908;16.490;2022-11-22T09:08:38;100863.25;;;-1.30
12126;BMP180;6126;57.908;16.490;2022-11-22T09:11:12;100864.09;;;-1.34
12126;BMP180;6126;57.908;16.490;2022-11-22T09:13:38;100869.19;;;-1.35
12126;BMP180;6126;57.908;16.490;2022-11-22T09:16:15;100870.94;;;-1.34
12126;BMP180;6126;57.908;16.490;2022-11-22T09:18:41;100869.19;;;-1.35
12126;BMP180;6126;57.908;16.490;2022-11-22T09:21:17;100874.31;;;-1.40
12126;BMP180;6126;57.908;16.490;2022-11-22T09:23:46;100880.28;;;-1.41
12126;BMP180;6126;57.908;16.490;2022-11-22T09:26:17;100891.44;;;-1.37
12126;BMP180;6126;57.908;16.490;2022-11-22T09:28:45;100892.31;;;-1.31
12126;BMP180;6126;57.908;16.490;2022-11-22T09:31:15;100893.25;;;-1.22
12126;BMP180;6126;57.908;16.490;2022-11-22T09:33:42;100888.16;;;-1.13
12126;BMP180;6126;57.908;16.490;2022-11-22T09:36:23;100902.72;;;-1.04
12126;BMP180;6126;57.908;16.490;2022-11-22T09:38:51;100913.88;;;-0.99
12126;BMP180;6126;57.908;16.490;2022-11-22T09:47:36;100901.97;;;-0.93
12126;BMP180;6126;57.908;16.490;2022-11-22T09:51:22;100901.97;;;-0.87
12126;BMP180;6126;57.908;16.490;2022-11-22T09:53:34;100906.31;;;-0.77
12126;BMP180;6126;57.908;16.490;2022-11-22T09:56:08;100905.50;;;-0.67
12126;BMP180;6126;57.908;16.490;2022-11-22T09:58:46;100905.50;;;-0.66
12126;BMP180;6126;57.908;16.490;2022-11-22T10:01:21;100902.09;;;-0.63
12126;BMP180;6126;57.908;16.490;2022-11-22T10:04:15;100915.81;;;-0.56
12126;BMP180;6126;57.908;16.490;2022-11-22T10:06:49;100922.69;;;-0.46
12126;BMP180;6126;57.908;16.490;2022-11-22T10:09:38;100921.88;;;-0.39
12126;BMP180;6126;57.908;16.490;2022-11-22T10:12:22;100929.53;;;-0.42
12126;BMP180;6126;57.908;16.490;2022-11-22T10:15:03;100926.13;;;-0.44
12126;BMP180;6126;57.908;16.490;2022-11-22T10:20:28;100927.84;;;-0.37
12126;BMP180;6126;57.908;16.490;2022-11-22T10:22:55;100916.72;;;-0.37
12126;BMP180;6126;57.908;16.490;2022-11-22T10:25:38;100916.69;;;-0.45
12126;BMP180;6126;57.908;16.490;2022-11-22T10:28:21;100919.25;;;-0.48
12126;BMP180;6126;57.908;16.490;2022-11-22T10:31:10;100904.72;;;-0.44
12126;BMP180;6126;57.908;16.490;2022-11-22T10:34:06;100890.22;;;-0.29
12126;BMP180;6126;57.908;16.490;2022-11-22T10:37:04;100873.09;;;-0.21
12126;BMP180;6126;57.908;16.490;2022-11-22T10:56:51;100894.59;;;0.06
12126;BMP180;6126;57.908;16.490;2022-11-22T11:05:12;100903.16;;;0.11
12126;BMP180;6126;57.908;16.490;2022-11-22T11:07:46;100905.72;;;0.17
12126;BMP180;6126;57.908;16.490;2022-11-22T11:10:18;100907.44;;;0.25
12126;BMP180;6126;57.908;16.490;2022-11-22T11:12:55;100900.56;;;0.33
12126;BMP180;6126;57.908;16.490;2022-11-22T11:16:10;100905.72;;;0.40
12126;BMP180;6126;57.908;16.490;2022-11-22T11:20:56;100892.88;;;0.51
12126;BMP180;6126;57.908;16.490;2022-11-22T11:23:22;100896.28;;;0.57
12126;BMP180;6126;57.908;16.490;2022-11-22T11:25:48;100897.13;;;0.62
12126;BMP180;6126;57.908;16.490;2022-11-22T11:28:22;100897.97;;;0.70
12126;BMP180;6126;57.908;16.490;2022-11-22T11:30:55;100900.56;;;0.74
12126;BMP180;6126;57.908;16.490;2022-11-22T11:33:32;100905.69;;;0.85
12126;BMP180;6126;57.908;16.490;2022-11-22T11:41:29;100915.97;;;0.89
12126;BMP180;6126;57.908;16.490;2022-11-22T11:44:03;100907.41;;;0.83
12126;BMP180;6126;57.908;16.490;2022-11-22T11:49:13;100915.97;;;0.77
12126;BMP180;6126;57.908;16.490;2022-11-22T11:54:19;100908.28;;;0.76
12126;BMP180;6126;57.908;16.490;2022-11-22T12:05:19;100912.56;;;0.69
12126;BMP180;6126;57.908;16.490;2022-11-22T12:07:48;100919.41;;;0.67
12126;BMP180;6126;57.908;16.490;2022-11-22T12:10:54;100927.13;;;0.64
12126;BMP180;6126;57.908;16.490;2022-11-22T12:13:40;100932.31;;;0.63
12126;BMP180;6126;57.908;16.490;2022-11-22T12:16:28;100933.16;;;0.66
12126;BMP180;6126;57.908;16.490;2022-11-22T12:22:18;100920.31;;;0.68
12126;BMP180;6126;57.908;16.490;2022-11-22T12:25:03;100928.84;;;0.70
12126;BMP180;6126;57.908;16.490;2022-11-22T12:27:34;100927.13;;;0.72
12126;BMP180;6126;57.908;16.490;2022-11-22T12:30:00;100927.97;;;0.75
12126;BMP180;6126;57.908;16.490;2022-11-22T12:32:35;100934.00;;;0.77
12126;BMP180;6126;57.908;16.490;2022-11-22T12:35:09;100939.13;;;0.77
12126;BMP180;6126;57.908;16.490;2022-11-22T12:37:56;100933.13;;;0.75
12126;BMP180;6126;57.908;16.490;2022-11-22T12:40:48;100934.00;;;0.79
12126;BMP180;6126;57.908;16.490;2022-11-22T12:43:44;100932.28;;;0.79
12126;BMP180;6126;57.908;16.490;2022-11-22T12:46:19;100927.97;;;0.80
12126;BMP180;6126;57.908;16.490;2022-11-22T12:49:10;100933.13;;;0.75
12126;BMP180;6126;57.908;16.490;2022-11-22T12:51:49;100925.41;;;0.72
12126;BMP180;6126;57.908;16.490;2022-11-22T12:54:30;100928.84;;;0.67
12126;BMP180;6126;57.908;16.490;2022-11-22T12:57:10;100924.56;;;0.61
12126;BMP180;6126;57.908;16.490;2022-11-22T13:05:23;100919.44;;;0.59
12126;BMP180;6126;57.908;16.490;2022-11-22T13:08:15;100919.44;;;0.56
12126;BMP180;6126;57.908;16.490;2022-11-22T13:10:53;100932.28;;;0.57
12126;BMP180;6126;57.908;16.490;2022-11-22T13:13:36;100934.00;;;0.60
12126;BMP180;6126;57.908;16.490;2022-11-22T13:16:09;100942.59;;;0.60
12126;BMP180;6126;57.908;16.490;2022-11-22T13:18:55;100940.03;;;0.60
12126;BMP180;6126;57.908;16.490;2022-11-22T13:22:20;100929.72;;;0.60
12126;BMP180;6126;57.908;16.490;2022-11-22T13:27:44;100933.16;;;0.55
12126;BMP180;6126;57.908;16.490;2022-11-22T13:30:29;100931.44;;;0.54
12126;BMP180;6126;57.908;16.490;2022-11-22T13:32:58;100916.00;;;0.54
12126;BMP180;6126;57.908;16.490;2022-11-22T13:35:37;100925.44;;;0.52
12126;BMP180;6126;57.908;16.490;2022-11-22T13:38:23;100925.44;;;0.50
12126;BMP180;6126;57.908;16.490;2022-11-22T13:40:49;100924.59;;;0.50
12126;BMP180;6126;57.908;16.490;2022-11-22T13:53:37;100933.06;;;1.06
12126;BMP180;6126;57.908;16.490;2022-11-22T13:59:12;100916.69;;;1.40
12126;BMP180;6126;57.908;16.490;2022-11-22T14:04:33;100914.03;;;1.62
12126;BMP180;6126;57.908;16.490;2022-11-22T14:07:25;100916.56;;;1.72
12126;BMP180;6126;57.908;16.490;2022-11-22T14:09:56;100895.03;;;1.81
12126;BMP180;6126;57.908;16.490;2022-11-22T14:23:26;100912.84;;;2.14
12126;BMP180;6126;57.908;16.490;2022-11-22T14:32:16;100911.94;;;2.24
12126;BMP180;6126;57.908;16.490;2022-11-22T14:47:50;100897.25;;;2.32
12126;BMP180;6126;57.908;16.490;2022-11-22T14:50:40;100899.00;;;2.29
12126;BMP180;6126;57.908;16.490;2022-11-22T14:53:51;100910.16;;;2.31
12126;BMP180;6126;57.908;16.490;2022-11-22T14:56:26;100911.03;;;2.30
12126;BMP180;6126;57.908;16.490;2022-11-22T15:11:12;100926.44;;;2.36
12126;BMP180;6126;57.908;16.490;2022-11-22T15:16:22;100937.63;;;2.38
12126;BMP180;6126;57.908;16.490;2022-11-22T15:18:51;100950.50;;;2.39
12126;BMP180;6126;57.908;16.490;2022-11-22T15:21:33;100946.22;;;2.40
12126;BMP180;6126;57.908;16.490;2022-11-22T15:24:00;100958.22;;;2.41
12126;BMP180;6126;57.908;16.490;2022-11-22T15:26:29;100965.97;;;2.41
12126;BMP180;6126;57.908;16.490;2022-11-22T15:28:58;100976.25;;;2.44
12126;BMP180;6126;57.908;16.490;2022-11-22T15:31:36;100971.06;;;2.48
12126;BMP180;6126;57.908;16.490;2022-11-22T15:34:02;100972.78;;;2.52
12126;BMP180;6126;57.908;16.490;2022-11-22T15:39:14;100992.50;;;2.57
12126;BMP180;6126;57.908;16.490;2022-11-22T15:41:47;100991.59;;;2.61
12126;BMP180;6126;57.908;16.490;2022-11-22T15:44:15;100994.16;;;2.64
12126;BMP180;6126;57.908;16.490;2022-11-22T15:46:42;100983.81;;;2.67
12126;BMP180;6126;57.908;16.490;2022-11-22T15:49:15;100986.38;;;2.69
12126;BMP180;6126;57.908;16.490;2022-11-22T15:51:58;100981.22;;;2.69
12126;BMP180;6126;57.908;16.490;2022-11-22T15:54:36;100984.63;;;2.72
12126;BMP180;6126;57.908;16.490;2022-11-22T15:57:34;100996.69;;;2.72
12126;BMP180;6126;57.908;16.490;2022-11-22T16:00:01;100993.25;;;2.71
12126;BMP180;6126;57.908;16.490;2022-11-22T16:02:29;100992.44;;;2.68
12126;BMP180;6126;57.908;16.490;2022-11-22T16:05:05;100988.97;;;2.67
12126;BMP180;6126;57.908;16.490;2022-11-22T16:07:41;101000.16;;;2.66
12126;BMP180;6126;57.908;16.490;2022-11-22T16:10:35;100994.13;;;2.67
12126;BMP180;6126;57.908;16.490;2022-11-22T16:15:37;100996.75;;;2.66
12126;BMP180;6126;57.908;16.490;2022-11-22T16:21:17;101001.88;;;2.67
12126;BMP180;6126;57.908;16.490;2022-11-22T16:23:37;100995.88;;;2.64
12126;BMP180;6126;57.908;16.490;2022-11-22T16:26:26;100996.72;;;2.64
12126;BMP180;6126;57.908;16.490;2022-11-22T16:29:18;100985.56;;;2.62
12126;BMP180;6126;57.908;16.490;2022-11-22T16:31:49;100996.75;;;2.61
12126;BMP180;6126;57.908;16.490;2022-11-22T16:34:15;100996.75;;;2.61
12126;BMP180;6126;57.908;16.490;2022-11-22T16:36:41;100994.19;;;2.61
12126;BMP180;6126;57.908;16.490;2022-11-22T16:39:07;100985.56;;;2.62
12126;BMP180;6126;57.908;16.490;2022-11-22T16:41:34;100992.44;;;2.63
12126;BMP180;6126;57.908;16.490;2022-11-22T16:44:12;100986.44;;;2.61
12126;BMP180;6126;57.908;16.490;2022-11-22T16:46:39;100989.03;;;2.61
12126;BMP180;6126;57.908;16.490;2022-11-22T16:49:20;100985.59;;;2.59
12126;BMP180;6126;57.908;16.490;2022-11-22T16:51:48;100978.72;;;2.58